Polk, Missouri
Current Conditions -  °F | °C
As of 1:52 AM on Friday 19 Dec 2014 (Local Time) from KSGF Reporting Station
Haze Haze  
Wind Chill: 37°   Ceiling: 300
Heat Index: 37°   Visibility: 3mi
Dew Point: 36°   Wind: 3mph
Humidity: 96%   Direction: 120°ESE
Pressure: 30.2"   Gusts: NA
Location:  37.73°N, 93.3°W
Report Text: KSGF 190752Z 12003KT 3SM BR OVC003 03/02 A3020 RMK AO2 SLP234 T00280022
Loading
Personal Weather Stations






























Interactive Weather Map New forecast layout! Learn more

10-Day Weather Forecast

Advertisements
Track Severe Weather on mobile